• Join FlightAware (Why Join?)
  • Login
  • US Flag 
12:48PM EDT


 

Airport Tracker/Info


-or-


 

Live Flight TrackerFlight Track Log ✈ UPS1331 ✈ 19-Jul-2013 ✈ KMIA - KSDF

Flight Track Log - Related Links

Times and Time Zones

All times are in EDT time to prevent confusion due to time zone crossing. See the UPS1331 flight status page for this flight to view local times or setup timezone preferences in your user account.

Time Position Orientation Groundspeed Altitude Reporting Facility
EDT Latitude Longitude Course Direction KTS MPH feet Rate Location/Type
10:29PM 25.7981 -80.2744 81° East 161 185 900  Level Miami Center
10:30PM 25.8033 -80.2353 81° East 204 235 2,100 1,620 Climbing Miami Center
10:30PM 25.8125 -80.1919 77° East 223 257 3,200 2,100 Climbing Miami Center
10:31PM 25.8533 -80.1400 49° Northeast 252 290 5,600 2,640 Climbing Miami Center
10:32PM 25.9367 -80.1514 353° North 223 257 8,500 2,520 Climbing Miami Center
10:33PM 25.9939 -80.2108 317° Northwest 239 275 10,800 2,520 Climbing Miami Center
10:34PM 26.0181 -80.3386 282° West 276 318 13,500 2,880 Climbing Miami Center
10:35PM 26.0444 -80.4550 284° West 340 391 16,600 3,000 Climbing Miami Center
10:36PM 26.0747 -80.5783 285° West 380 437 19,500 2,640 Climbing Miami Center
10:37PM 26.1389 -80.6844 304° West 411 473 22,000 2,400 Climbing Miami Center
10:38PM 26.2303 -80.7800 317° Northwest 424 488 24,400 2,160 Climbing Miami Center
10:39PM 26.3181 -80.8572 322° Northwest 439 505 26,400 1,980 Climbing Miami Center
10:40PM 26.4456 -80.9333 332° Northwest 464 534 28,400 2,100 Climbing Miami Center
10:41PM 26.5669 -80.9978 335° Northwest 479 551 30,700 2,220 Climbing Miami Center
10:42PM 26.6839 -81.0647 333° Northwest 479 551 32,900 2,160 Climbing Miami Center
10:43PM 26.7969 -81.1294 333° Northwest 468 539 35,100 1,920 Climbing Miami Center
10:44PM 26.8975 -81.1889 332° Northwest 455 524 36,800 1,440 Climbing Miami Center
10:45PM 27.0083 -81.2511 333° Northwest 443 510 38,000 540 Climbing Miami Center
10:46PM 27.1253 -81.3164 334° Northwest 443 510 38,000  Level Miami Center
10:47PM 27.2339 -81.3811 332° Northwest 438 504 38,000  Level Miami Center
10:48PM 27.3447 -81.4439 333° Northwest 448 516 38,000  Level Miami Center
10:49PM 27.4450 -81.5019 333° Northwest 448 516 38,000  Level Miami Center
10:50PM 27.5578 -81.5672 333° Northwest 448 516 38,000  Level Miami Center
10:51PM 27.6828 -81.6403 333° Northwest 443 510 38,000  Level Miami Center
10:54PM 27.9239 -81.7722 334° Northwest 459 528 38,000  Level Jacksonville Center
10:55PM 28.0372 -81.8392 332° Northwest 454 522 38,000  Level Jacksonville Center
10:56PM 28.1483 -81.9064 332° Northwest 454 522 38,000  Level Jacksonville Center
10:57PM 28.2550 -81.9689 333° Northwest 449 517 38,000  Level Jacksonville Center
10:58PM 28.3683 -82.0339 333° Northwest 449 517 38,000  Level Jacksonville Center
10:59PM 28.4814 -82.0850 338° Northwest 439 505 38,000  Level Jacksonville Center
11:00PM 28.5983 -82.1336 340° North 439 505 38,000  Level Jacksonville Center
11:01PM 28.7136 -82.1847 339° North 439 505 38,000  Level Jacksonville Center
11:02PM 28.8286 -82.2314 340° North 434 499 38,000  Level Jacksonville Center
11:03PM 28.9414 -82.2828 338° Northwest 434 499 38,000  Level Jacksonville Center
11:04PM 29.0544 -82.3319 339° North 429 494 38,000  Level Jacksonville Center
11:05PM 29.1675 -82.3814 339° North 434 499 38,000  Level Jacksonville Center
11:06PM 29.2825 -82.4331 339° North 434 499 38,000  Level Jacksonville Center
11:07PM 29.3975 -82.4825 339° North 434 499 38,000  Level Jacksonville Center
11:08PM 29.5122 -82.5297 340° North 434 499 38,000  Level Jacksonville Center
11:09PM 29.6314 -82.5819 339° North 434 499 38,000  Level Jacksonville Center
11:10PM 29.7611 -82.6461 337° Northwest 447 514 38,000  Level Jacksonville Center
11:11PM 29.8781 -82.6961 340° North 452 520 38,000  Level Jacksonville Center
11:12PM 29.9931 -82.7511 338° Northwest 452 520 38,000  Level Jacksonville Center
11:13PM 30.1142 -82.7989 341° North 452 520 38,000  Level Jacksonville Center
11:14PM 30.2311 -82.8517 339° North 452 520 38,000  Level Jacksonville Center
11:15PM 30.3500 -82.9047 339° North 452 520 38,000  Level Jacksonville Center
11:16PM 30.4647 -82.9575 338° Northwest 452 520 38,000  Level Jacksonville Center
11:17PM 30.5839 -83.0083 340° North 452 520 38,000  Level Jacksonville Center
11:18PM 30.7006 -83.0617 339° North 452 520 38,000  Level Jacksonville Center
11:19PM 30.8175 -83.1150 339° North 452 520 38,000  Level Jacksonville Center
11:20PM 30.9303 -83.1686 338° Northwest 442 509 38,000  Level Jacksonville Center
11:21PM 31.0469 -83.2222 339° North 442 509 38,000  Level Jacksonville Center
11:22PM 31.1617 -83.2736 339° North 442 509 38,000  Level Jacksonville Center
11:24PM 31.3942 -83.3797 339° North 442 509 38,000  Level Atlanta Center
11:25PM 31.5197 -83.4372 339° North 442 509 38,000  Level Atlanta Center
11:26PM 31.6347 -83.4900 339° North 442 509 38,000  Level Atlanta Center
11:27PM 31.7519 -83.5406 340° North 437 503 38,000  Level Atlanta Center
11:28PM 31.8689 -83.5961 338° Northwest 442 509 38,000  Level Atlanta Center
11:29PM 31.9819 -83.6519 337° Northwest 442 509 38,000  Level Atlanta Center
11:30PM 32.0947 -83.7056 338° Northwest 442 509 38,000  Level Atlanta Center
11:31PM 32.2117 -83.7589 339° North 436 502 38,000  Level Atlanta Center
11:32PM 32.3267 -83.8128 338° Northwest 436 502 38,000  Level Atlanta Center
11:33PM 32.4394 -83.8667 338° Northwest 436 502 38,000  Level Atlanta Center
11:34PM 32.5544 -83.9206 338° Northwest 436 502 38,000  Level Atlanta Center
11:35PM 32.6692 -83.9772 337° Northwest 436 502 38,000  Level Atlanta Center
11:36PM 32.7861 -84.0339 338° Northwest 436 502 38,000  Level Atlanta Center
11:37PM 32.9031 -84.0858 340° North 441 507 38,000  Level Atlanta Center
11:38PM 33.0178 -84.1453 337° Northwest 441 507 38,000  Level Atlanta Center
11:39PM 33.1303 -84.2000 338° Northwest 441 507 38,000  Level Atlanta Center
11:40PM 33.2472 -84.2550 339° North 441 507 38,000  Level Atlanta Center
11:41PM 33.3639 -84.3100 339° North 441 507 38,000  Level Atlanta Center
11:42PM 33.4808 -84.3675 338° Northwest 448 516 38,000  Level Atlanta Center
11:43PM 33.5828 -84.4178 338° Northwest 448 516 38,000  Level Atlanta Center
11:44PM 33.7017 -84.4583 344° North 448 516 38,000  Level Atlanta Center
11:45PM 33.8269 -84.4864 349° North 448 516 38,000  Level Atlanta Center
11:46PM 33.9542 -84.5172 349° North 448 516 38,000  Level Atlanta Center
11:47PM 34.0769 -84.5478 348° North 448 516 38,000  Level Atlanta Center
11:48PM 34.2167 -84.5814 349° North 454 522 38,000  Level Atlanta Center
11:49PM 34.3397 -84.6125 348° North 449 517 38,000 -480 Level Atlanta Center
11:50PM 34.4628 -84.6433 348° North 444 511 37,100 -540 Descending Atlanta Center
11:51PM 34.5900 -84.6722 349° North 459 528 37,000 -60 Descending Atlanta Center
11:52PM 34.6961 -84.7058 345° North 457 526 37,000  Level Atlanta Center
11:53PM 34.8233 -84.7372 349° North 457 526 37,000  Level Atlanta Center
11:54PM 34.9525 -84.7686 349° North 457 526 37,000  Level Atlanta Center
11:55PM 35.0794 -84.8028 348° North 462 532 37,000  Level Atlanta Center
11:56PM 35.2086 -84.8344 349° North 467 537 37,000  Level Atlanta Center
11:57PM 35.3378 -84.8661 349° North 472 543 37,000  Level Atlanta Center
11:58PM 35.4650 -84.9006 348° North 467 537 37,000  Level Atlanta Center
11:59PM 35.5900 -84.9325 348° North 467 537 37,000 -660 Level Atlanta Center
12:00AM 35.8100 -84.9869 349° North 471 542 35,300 -1,140 Descending Indianapolis Center
12:01AM 35.9406 -85.0167 350° North 474 545 34,100 -1,080 Descending Indianapolis Center
12:02AM 36.0608 -85.0439 350° North 470 541 33,200 -960 Descending Indianapolis Center
12:03AM 36.1886 -85.0739 349° North 467 537 32,200 -1,080 Descending Indianapolis Center
12:04AM 36.3161 -85.1039 349° North 465 535 31,100 -1,080 Descending Indianapolis Center
12:05AM 36.4436 -85.1333 349° North 464 534 30,100 -1,020 Descending Indianapolis Center
12:06AM 36.5933 -85.1625 351° North 451 519 29,100 -1,380 Descending Indianapolis Center
12:08AM 36.7131 -85.1419 North 433 498 27,300 -1,860 Descending Indianapolis Center
12:09AM 36.8294 -85.1186 North 424 488 25,400 -1,860 Descending Indianapolis Center
12:10AM 36.9408 -85.0961 North 409 471 23,600 -1,800 Descending Indianapolis Center
12:11AM 37.0503 -85.0744 North 403 464 21,800 -2,580 Descending Indianapolis Center
12:12AM 37.1622 -85.0517 North 408 470 18,400 -2,460 Descending Indianapolis Center
12:13AM 37.2817 -85.0275 North 429 494 16,800 -1,380 Descending Indianapolis Center
12:14AM 37.4000 -85.0039 North 429 494 15,700 -1,440 Descending Indianapolis Center
12:15AM 37.5161 -84.9800 North 423 487 13,900 -2,160 Descending Indianapolis Center
12:16AM 37.6292 -84.9625 North 412 474 11,400 -1,800 Descending Indianapolis Center
12:17AM 37.7144 -85.0383 325° Northwest 383 441 10,300 -720 Descending Indianapolis Center
12:18AM 37.7836 -85.1311 313° West 362 417 10,000 -660 Descending Indianapolis Center
12:19AM 37.8072 -85.2300 287° West 298 343 9,000 -1,440 Descending Indianapolis Center
12:20AM 37.8306 -85.3211 288° West 276 318 7,200 -1,440 Descending Indianapolis Center
12:21AM 37.8608 -85.4050 295° West 276 318 6,100 -1,140 Descending Indianapolis Center
12:22AM 37.9000 -85.5061 296° West 266 306 5,000 -600 Descending Indianapolis Center
12:23AM 37.9303 -85.5814 297° West 247 284 4,900 -540 Descending Indianapolis Center
12:24AM 37.9594 -85.6500 298° West 228 262 4,000 -840 Descending Indianapolis Center
12:25AM 38.0094 -85.6931 326° Northwest 217 250 3,300 -900 Descending Indianapolis Center
12:26AM 38.0631 -85.7078 348° North 206 237 2,300 -780 Descending Indianapolis Center
12:27AM 38.1039 -85.7203 346° North 194 223 1,800 -540 Descending Indianapolis Center
12:29AM 38.1741 -85.7365 345° North  Level Estimated
12:36AM 38.1741 -85.7365 208° Southwest  Level Estimated